Time;durP1;ratioP1;P1;durP2;ratioP2;P2;SDS_P1;SDS_P2;PMS_P1;PMS_P2;Temp;Humidity;BMP_temperature;BMP_pressure;BME280_temperature;BME280_humidity;BME280_pressure;Samples;Min_cycle;Max_cycle;Signal;HPM_P1;HPM_P2
2022/11/26 00:01:48;;;;;;;75.32;51.95;;;15.90;72.60;;;;;;4975492;28;91080;-47
2022/11/26 00:04:13;;;;;;;74.57;52.05;;;15.90;72.80;;;;;;4984333;28;91013;-46
2022/11/26 00:06:41;;;;;;;74.70;52.33;;;15.90;72.90;;;;;;4990313;27;92340;-47
2022/11/26 00:09:17;;;;;;;75.07;52.60;;;15.90;72.90;;;;;;4980999;28;89950;-47
2022/11/26 00:11:43;;;;;;;74.40;52.67;;;15.80;72.80;;;;;;4978833;28;94101;-46
2022/11/26 00:14:13;;;;;;;74.20;52.33;;;15.80;72.90;;;;;;4988269;28;89934;-51
2022/11/26 00:16:39;;;;;;;73.45;52.15;;;15.80;73.10;;;;;;4986969;28;90126;-47
2022/11/26 00:19:05;;;;;;;73.20;52.00;;;15.70;73.00;;;;;;4977180;28;90077;-49
2022/11/26 00:21:34;;;;;;;72.65;51.63;;;15.70;73.10;;;;;;4987050;28;89663;-47
2022/11/26 00:24:01;;;;;;;73.53;51.55;;;15.80;73.10;;;;;;4975838;27;89012;-49
2022/11/26 00:26:27;;;;;;;73.32;51.65;;;15.80;72.90;;;;;;4984182;27;89991;-46
2022/11/26 00:29:01;;;;;;;75.72;51.70;;;15.70;73.10;;;;;;4982543;28;90174;-47
2022/11/26 00:31:28;;;;;;;73.43;52.15;;;15.70;72.90;;;;;;4980909;28;91781;-46
2022/11/26 00:33:54;;;;;;;73.47;51.72;;;15.70;73.80;;;;;;4986693;28;89895;-48
2022/11/26 00:36:27;;;;;;;75.57;51.95;;;15.70;73.00;;;;;;4994537;28;89587;-46
2022/11/26 00:39:00;;;;;;;73.30;51.55;;;15.70;73.00;;;;;;4990421;28;89463;-47
2022/11/26 00:41:31;;;;;;;72.28;51.60;;;15.60;73.20;;;;;;4986971;28;89768;-47
2022/11/26 00:43:57;;;;;;;73.90;51.87;;;15.60;73.10;;;;;;4984391;27;92537;-47
2022/11/26 00:46:23;;;;;;;74.45;52.20;;;15.60;73.20;;;;;;4987540;28;89459;-47
2022/11/26 00:48:50;;;;;;;71.72;51.42;;;15.60;73.20;;;;;;4985317;28;90456;-46
2022/11/26 00:51:21;;;;;;;72.07;51.35;;;15.60;73.20;;;;;;4985077;28;89740;-46
2022/11/26 00:53:47;;;;;;;73.53;52.10;;;15.60;73.20;;;;;;4978728;28;94578;-46
2022/11/26 00:56:18;;;;;;;74.63;51.35;;;15.50;73.10;;;;;;4985026;28;92332;-46
2022/11/26 00:58:45;;;;;;;72.65;52.03;;;15.50;73.20;;;;;;4985842;28;90021;-48
2022/11/26 01:01:13;;;;;;;73.93;51.83;;;15.50;73.10;;;;;;4985554;28;91845;-47
2022/11/26 01:03:41;;;;;;;73.57;51.40;;;15.50;73.20;;;;;;4993960;28;90428;-48
2022/11/26 01:06:22;;;;;;;72.38;51.72;;;15.50;73.60;;;;;;4977820;28;92868;-50
2022/11/26 01:08:48;;;;;;;71.70;51.60;;;15.50;73.40;;;;;;4991853;28;89903;-50
2022/11/26 01:11:16;;;;;;;72.47;51.70;;;15.50;73.40;;;;;;4982876;28;94705;-47
2022/11/26 01:13:44;;;;;;;72.32;51.67;;;15.50;73.60;;;;;;4992295;28;89725;-46
2022/11/26 01:16:20;;;;;;;72.03;51.70;;;15.40;73.80;;;;;;4978125;28;93256;-48
2022/11/26 01:18:47;;;;;;;73.28;51.63;;;15.50;73.60;;;;;;4978455;28;90524;-49
2022/11/26 01:21:13;;;;;;;72.38;51.80;;;15.40;73.50;;;;;;4987066;28;92221;-45
2022/11/26 01:23:39;;;;;;;71.57;51.63;;;15.40;73.50;;;;;;4976332;28;90903;-47
2022/11/26 01:26:05;;;;;;;73.88;51.75;;;15.40;73.60;;;;;;4989498;27;90373;-48
2022/11/26 01:28:31;;;;;;;72.70;51.72;;;15.40;73.80;;;;;;4989175;28;95846;-50
2022/11/26 01:30:57;;;;;;;72.60;51.17;;;15.40;73.70;;;;;;4985760;28;89848;-48
2022/11/26 01:33:22;;;;;;;72.32;51.72;;;15.40;73.30;;;;;;4988030;28;91776;-46
2022/11/26 01:35:48;;;;;;;72.40;51.70;;;15.40;73.60;;;;;;4976901;28;89812;-46
2022/11/26 01:38:14;;;;;;;72.05;51.53;;;15.40;73.50;;;;;;4988244;28;88910;-49
2022/11/26 01:41:01;;;;;;;71.28;51.50;;;15.40;73.50;;;;;;4984143;28;94437;-47
2022/11/26 01:43:32;;;;;;;71.60;51.45;;;15.30;73.50;;;;;;4980767;28;93503;-47
2022/11/26 01:45:57;;;;;;;71.93;51.00;;;15.40;73.50;;;;;;4990421;28;90920;-48
2022/11/26 01:48:23;;;;;;;70.30;50.92;;;15.30;73.30;;;;;;4988314;28;91976;-45
2022/11/26 01:50:58;;;;;;;70.90;51.17;;;15.40;73.40;;;;;;4981207;28;91616;-46
2022/11/26 01:53:44;;;;;;;71.50;51.55;;;15.40;73.30;;;;;;4983928;28;93208;-48
2022/11/26 01:56:32;;;;;;;70.78;51.17;;;15.40;73.30;;;;;;4981560;28;91230;-47
2022/11/26 01:59:21;;;;;;;72.30;51.03;;;15.40;73.20;;;;;;4996688;28;89518;-46
2022/11/26 02:01:50;;;;;;;70.97;51.45;;;15.30;73.40;;;;;;4975448;28;91386;-47
2022/11/26 02:04:36;;;;;;;71.60;51.42;;;15.30;74.00;;;;;;4983818;28;90347;-47
2022/11/26 02:07:02;;;;;;;71.30;51.45;;;15.30;73.40;;;;;;4988842;28;90080;-48
2022/11/26 02:09:29;;;;;;;71.22;51.53;;;15.30;73.30;;;;;;4986417;28;89778;-46
2022/11/26 02:11:55;;;;;;;71.63;50.88;;;15.30;73.40;;;;;;4972683;28;92041;-47
2022/11/26 02:14:29;;;;;;;70.80;50.90;;;15.30;73.50;;;;;;4980504;28;91004;-47
2022/11/26 02:17:10;;;;;;;71.18;51.42;;;15.30;73.30;;;;;;4979270;28;90851;-48
2022/11/26 02:19:57;;;;;;;71.57;51.50;;;15.30;73.20;;;;;;4991680;28;89910;-48
2022/11/26 02:22:50;;;;;;;71.82;51.22;;;15.30;73.30;;;;;;4978506;28;93033;-46
2022/11/26 02:25:50;;;;;;;72.25;51.20;;;15.20;73.30;;;;;;4984165;28;93209;-46
2022/11/26 02:28:36;;;;;;;70.78;50.88;;;15.20;73.20;;;;;;4989521;28;90196;-49
2022/11/26 02:31:09;;;;;;;71.72;51.30;;;15.20;73.30;;;;;;4981227;28;88876;-47
2022/11/26 02:33:50;;;;;;;71.72;50.75;;;15.20;73.10;;;;;;4979507;28;94278;-47
2022/11/26 02:36:25;;;;;;;71.80;51.00;;;15.20;73.30;;;;;;4985658;28;92392;-47
2022/11/26 02:38:51;;;;;;;73.32;50.70;;;15.20;73.10;;;;;;4982810;28;91906;-50
2022/11/26 02:41:16;;;;;;;70.93;51.15;;;15.20;73.20;;;;;;4985719;28;89791;-49
2022/11/26 02:43:42;;;;;;;71.43;51.55;;;15.10;73.20;;;;;;4977340;28;91673;-49
2022/11/26 02:46:11;;;;;;;70.63;50.88;;;15.20;73.30;;;;;;4989819;28;89998;-48
2022/11/26 02:48:41;;;;;;;69.47;50.60;;;15.20;73.40;;;;;;4983518;28;89694;-49
2022/11/26 02:51:15;;;;;;;71.35;51.33;;;15.20;73.30;;;;;;4980138;28;94488;-46
2022/11/26 02:53:42;;;;;;;70.82;51.03;;;15.20;73.30;;;;;;4982857;28;90061;-46
2022/11/26 02:56:14;;;;;;;70.13;50.97;;;15.10;73.20;;;;;;4979440;28;92231;-47
2022/11/26 02:58:40;;;;;;;70.40;51.35;;;15.10;73.50;;;;;;4981398;28;89715;-46
2022/11/26 03:01:15;;;;;;;72.32;51.13;;;15.10;73.40;;;;;;4982756;28;93060;-46
2022/11/26 03:03:49;;;;;;;69.82;51.00;;;15.10;73.20;;;;;;4985131;28;97939;-47
2022/11/26 03:06:17;;;;;;;72.18;51.17;;;15.10;73.40;;;;;;4984880;28;92155;-47
2022/11/26 03:08:44;;;;;;;74.40;51.22;;;15.10;73.20;;;;;;4981579;28;91507;-47
2022/11/26 03:11:11;;;;;;;70.63;51.28;;;15.10;73.40;;;;;;4990122;28;89626;-47
2022/11/26 03:13:36;;;;;;;72.00;51.22;;;15.10;73.40;;;;;;4982281;28;91557;-47
2022/11/26 03:16:03;;;;;;;70.72;50.90;;;15.10;73.40;;;;;;4982872;28;92949;-49
2022/11/26 03:18:29;;;;;;;71.07;51.42;;;15.00;73.20;;;;;;4981059;28;89916;-47
2022/11/26 03:20:54;;;;;;;73.85;51.00;;;15.00;73.20;;;;;;4987378;28;88891;-49
2022/11/26 03:23:20;;;;;;;70.53;50.90;;;15.10;73.30;;;;;;4984799;28;91255;-46
2022/11/26 03:25:46;;;;;;;71.07;51.15;;;15.00;73.20;;;;;;4987782;28;90597;-46
2022/11/26 03:28:12;;;;;;;71.35;51.22;;;15.00;73.40;;;;;;4989918;28;91912;-46
2022/11/26 03:30:37;;;;;;;71.80;50.95;;;15.10;73.20;;;;;;4984949;28;92169;-46
2022/11/26 03:33:03;;;;;;;70.30;50.65;;;15.00;73.20;;;;;;4976107;28;92497;-46
2022/11/26 03:35:28;;;;;;;70.95;51.08;;;15.00;73.20;;;;;;4978340;28;89897;-46
2022/11/26 03:37:54;;;;;;;69.60;51.13;;;15.00;73.30;;;;;;4983338;28;90097;-48
2022/11/26 03:40:20;;;;;;;69.75;50.25;;;15.00;73.40;;;;;;4984892;28;89356;-50
2022/11/26 03:42:45;;;;;;;70.72;51.00;;;15.00;73.20;;;;;;4975082;28;91285;-48
2022/11/26 03:45:12;;;;;;;69.68;50.70;;;15.00;73.50;;;;;;4988830;28;90834;-47
2022/11/26 03:47:38;;;;;;;69.45;50.78;;;14.90;73.30;;;;;;4979321;28;90010;-47
2022/11/26 03:50:05;;;;;;;70.45;50.50;;;15.00;73.20;;;;;;4983058;28;89654;-49
2022/11/26 03:52:31;;;;;;;70.47;51.28;;;14.90;73.30;;;;;;4984942;28;91315;-51
2022/11/26 03:54:56;;;;;;;70.78;50.65;;;14.90;73.40;;;;;;4983868;28;90654;-47
2022/11/26 03:57:22;;;;;;;69.78;50.83;;;14.90;73.20;;;;;;4976664;28;89896;-48
2022/11/26 03:59:48;;;;;;;69.72;50.72;;;15.00;73.40;;;;;;4974348;28;90627;-46
2022/11/26 04:02:14;;;;;;;71.55;50.28;;;14.90;73.40;;;;;;4982462;28;90222;-47
2022/11/26 04:04:39;;;;;;;69.80;50.92;;;15.00;73.40;;;;;;4979243;28;91242;-47
2022/11/26 04:07:05;;;;;;;70.28;50.55;;;14.90;73.20;;;;;;4987476;28;89799;-46
2022/11/26 04:09:31;;;;;;;71.00;50.60;;;14.90;73.30;;;;;;4987820;28;91279;-47
2022/11/26 04:11:56;;;;;;;69.60;50.80;;;14.90;73.30;;;;;;4989753;28;94277;-48
2022/11/26 04:14:22;;;;;;;70.28;50.67;;;14.90;73.40;;;;;;4983990;27;91565;-46
2022/11/26 04:16:48;;;;;;;69.47;50.80;;;14.90;73.30;;;;;;4989091;28;90811;-46
2022/11/26 04:19:13;;;;;;;70.55;51.17;;;14.90;73.30;;;;;;4987379;28;90164;-47
2022/11/26 04:21:39;;;;;;;69.57;50.33;;;14.90;73.10;;;;;;4990788;28;90439;-49
2022/11/26 04:24:05;;;;;;;70.20;50.75;;;14.90;73.10;;;;;;4985592;28;91932;-46
2022/11/26 04:26:31;;;;;;;70.60;50.38;;;14.90;73.40;;;;;;4988460;28;90609;-46
2022/11/26 04:28:57;;;;;;;69.90;50.60;;;14.80;73.20;;;;;;4986838;28;90172;-48
2022/11/26 04:31:22;;;;;;;69.40;50.38;;;14.80;73.40;;;;;;4987648;28;97018;-46
2022/11/26 04:33:48;;;;;;;68.78;50.38;;;14.80;73.60;;;;;;4982433;28;94504;-45
2022/11/26 04:36:14;;;;;;;69.57;50.75;;;14.80;73.60;;;;;;4981312;28;89442;-46
2022/11/26 04:38:39;;;;;;;68.68;50.17;;;14.80;73.50;;;;;;4988795;28;90065;-46
2022/11/26 04:41:05;;;;;;;70.32;50.80;;;14.80;73.30;;;;;;4982359;28;91307;-47
2022/11/26 04:43:31;;;;;;;70.20;50.78;;;14.80;73.40;;;;;;4981732;27;90197;-47
2022/11/26 04:45:56;;;;;;;70.38;50.47;;;14.80;73.50;;;;;;4984766;28;96160;-48
2022/11/26 04:48:22;;;;;;;70.20;50.30;;;14.80;73.50;;;;;;4991313;28;89491;-46
2022/11/26 04:50:48;;;;;;;70.18;50.85;;;14.80;73.40;;;;;;4984649;27;92929;-51
2022/11/26 04:53:15;;;;;;;69.90;50.80;;;14.80;73.50;;;;;;4981047;28;90477;-49
2022/11/26 04:55:41;;;;;;;69.72;50.83;;;14.80;73.60;;;;;;4985417;28;89808;-49
2022/11/26 04:58:06;;;;;;;70.53;50.45;;;14.80;74.30;;;;;;4982328;28;93354;-46
2022/11/26 05:00:32;;;;;;;69.68;50.53;;;14.70;73.60;;;;;;4981978;28;95391;-46
2022/11/26 05:02:58;;;;;;;70.18;50.60;;;14.80;73.70;;;;;;4984633;28;89813;-46
2022/11/26 05:05:23;;;;;;;71.70;50.97;;;14.80;73.50;;;;;;4990475;27;90518;-48
2022/11/26 05:07:52;;;;;;;70.28;50.72;;;14.80;73.40;;;;;;4989739;28;91675;-47
2022/11/26 05:10:18;;;;;;;69.80;50.28;;;14.70;73.20;;;;;;4983582;28;91568;-46
2022/11/26 05:12:43;;;;;;;72.53;50.50;;;14.70;73.20;;;;;;4984160;27;89946;-49
2022/11/26 05:15:09;;;;;;;71.38;50.72;;;14.70;73.10;;;;;;4986107;28;90561;-47
2022/11/26 05:17:35;;;;;;;69.55;50.47;;;14.70;73.30;;;;;;4989133;28;91093;-46
2022/11/26 05:20:01;;;;;;;69.43;50.30;;;14.70;73.30;;;;;;4979945;27;90922;-47
2022/11/26 05:22:26;;;;;;;72.10;50.92;;;14.70;73.30;;;;;;4993087;27;89679;-45
2022/11/26 05:24:52;;;;;;;69.18;50.47;;;14.70;73.20;;;;;;4979285;28;91137;-47
2022/11/26 05:27:18;;;;;;;71.00;50.53;;;14.70;73.30;;;;;;4978375;27;92770;-49
2022/11/26 05:29:43;;;;;;;69.15;50.60;;;14.70;73.30;;;;;;4984300;28;91295;-47
2022/11/26 05:32:09;;;;;;;68.70;50.28;;;14.70;73.30;;;;;;4990346;27;91654;-46
2022/11/26 05:34:34;;;;;;;69.10;50.28;;;14.70;73.30;;;;;;4987855;28;89354;-48
2022/11/26 05:37:00;;;;;;;71.25;50.90;;;14.70;73.30;;;;;;4986066;28;90254;-45
2022/11/26 05:39:26;;;;;;;71.68;50.35;;;14.70;73.20;;;;;;4994001;28;92385;-46
2022/11/26 05:41:51;;;;;;;70.30;50.67;;;14.70;73.30;;;;;;4979802;27;89916;-46
2022/11/26 05:44:17;;;;;;;70.60;50.72;;;14.70;73.20;;;;;;4993150;28;89861;-46
2022/11/26 05:46:42;;;;;;;71.45;51.17;;;14.70;73.40;;;;;;4984936;28;92986;-47
2022/11/26 05:49:09;;;;;;;68.95;50.60;;;14.60;73.10;;;;;;4980997;28;91617;-46
2022/11/26 05:51:34;;;;;;;70.05;50.53;;;14.70;73.50;;;;;;4976436;28;89920;-46
2022/11/26 05:54:00;;;;;;;70.45;50.95;;;14.70;73.40;;;;;;4984085;28;91653;-46
2022/11/26 05:56:26;;;;;;;70.05;50.60;;;14.60;73.10;;;;;;4983887;28;90713;-46
2022/11/26 05:58:51;;;;;;;70.22;51.03;;;14.70;73.10;;;;;;4979806;28;90522;-46
2022/11/26 06:01:17;;;;;;;70.82;50.35;;;14.70;73.20;;;;;;4981321;28;95298;-45
2022/11/26 06:03:43;;;;;;;68.30;50.08;;;14.70;73.10;;;;;;4981701;28;91601;-48
2022/11/26 06:06:08;;;;;;;68.85;50.35;;;14.70;73.00;;;;;;4985732;28;93109;-45
2022/11/26 06:08:37;;;;;;;68.72;50.40;;;14.70;73.30;;;;;;4975163;28;90527;-47
2022/11/26 06:11:02;;;;;;;70.75;50.17;;;14.60;73.10;;;;;;4980439;28;89251;-45
2022/11/26 06:13:28;;;;;;;69.47;50.75;;;14.70;72.90;;;;;;4984156;28;89982;-45
2022/11/26 06:15:54;;;;;;;70.43;51.08;;;14.60;73.00;;;;;;4990844;28;93733;-47
2022/11/26 06:18:19;;;;;;;69.97;50.22;;;14.70;73.00;;;;;;4984595;28;90424;-46
2022/11/26 06:20:45;;;;;;;69.40;50.53;;;14.60;73.00;;;;;;4983528;27;91075;-46
2022/11/26 06:23:11;;;;;;;70.15;50.63;;;14.60;73.30;;;;;;4982170;28;90251;-46
2022/11/26 06:25:39;;;;;;;70.55;50.65;;;14.60;73.20;;;;;;4990588;28;89667;-47
2022/11/26 06:28:05;;;;;;;71.15;50.58;;;14.60;73.10;;;;;;4974409;28;90704;-47
2022/11/26 06:30:31;;;;;;;70.97;50.75;;;14.60;73.10;;;;;;4975035;28;92858;-47
2022/11/26 06:32:56;;;;;;;71.28;50.33;;;14.60;73.20;;;;;;4982813;28;90028;-47
2022/11/26 06:35:22;;;;;;;71.95;50.40;;;14.60;73.00;;;;;;4978416;28;89353;-47
2022/11/26 06:37:47;;;;;;;69.97;50.63;;;14.60;73.00;;;;;;4981036;28;90823;-45
2022/11/26 06:40:17;;;;;;;70.80;50.55;;;14.60;72.90;;;;;;4991915;28;89913;-46
2022/11/26 06:42:48;;;;;;;71.07;50.90;;;14.60;72.60;;;;;;4984961;28;90938;-51
2022/11/26 06:45:13;;;;;;;73.03;51.07;;;14.60;72.50;;;;;;4979416;28;93376;-48
2022/11/26 06:47:39;;;;;;;71.68;51.45;;;14.50;72.50;;;;;;4985452;28;90473;-47
2022/11/26 06:50:05;;;;;;;71.50;51.38;;;14.60;72.30;;;;;;4978590;28;91393;-46
2022/11/26 06:52:31;;;;;;;71.97;51.95;;;14.60;72.30;;;;;;4986877;28;90212;-45
2022/11/26 06:54:56;;;;;;;72.80;52.25;;;14.60;72.20;;;;;;4968415;28;89789;-47
2022/11/26 06:57:22;;;;;;;76.18;53.45;;;14.60;72.20;;;;;;4975632;27;95952;-45
2022/11/26 06:59:47;;;;;;;74.47;52.22;;;14.60;72.20;;;;;;4980370;28;89257;-48
2022/11/26 07:02:13;;;;;;;73.35;51.72;;;14.50;72.10;;;;;;4985853;28;89894;-46
2022/11/26 07:04:39;;;;;;;71.88;51.60;;;14.50;72.10;;;;;;4988554;28;91251;-49
2022/11/26 07:07:05;;;;;;;73.63;51.63;;;14.50;72.00;;;;;;4983929;28;91522;-45
2022/11/26 07:09:30;;;;;;;73.57;52.28;;;14.50;72.30;;;;;;4990120;28;90678;-51
2022/11/26 07:11:56;;;;;;;72.43;51.50;;;14.50;72.50;;;;;;4976782;28;94814;-45
2022/11/26 07:14:21;;;;;;;91.25;60.33;;;14.50;72.50;;;;;;4982323;28;90123;-46
2022/11/26 07:16:47;;;;;;;87.15;60.33;;;14.50;72.40;;;;;;4978614;28;90021;-47
2022/11/26 07:19:13;;;;;;;84.07;58.25;;;14.60;72.10;;;;;;4983819;27;93444;-46
2022/11/26 07:21:39;;;;;;;86.68;58.30;;;14.60;71.90;;;;;;4975838;28;89918;-45
2022/11/26 07:24:05;;;;;;;84.50;58.20;;;14.80;71.70;;;;;;4983751;28;89318;-47
2022/11/26 07:26:31;;;;;;;86.60;57.10;;;14.90;71.20;;;;;;4984798;28;90015;-46
2022/11/26 07:28:56;;;;;;;83.85;56.38;;;15.00;70.80;;;;;;4991459;28;91940;-47
2022/11/26 07:31:23;;;;;;;82.40;56.00;;;15.10;70.70;;;;;;4973936;28;90945;-47
2022/11/26 07:33:50;;;;;;;81.63;55.88;;;15.20;70.30;;;;;;4979230;28;91814;-48
2022/11/26 07:36:19;;;;;;;83.93;56.08;;;15.20;70.20;;;;;;4989856;28;90542;-49
2022/11/26 07:38:45;;;;;;;80.55;55.58;;;15.20;69.90;;;;;;4984850;28;92109;-47
2022/11/26 07:41:13;;;;;;;81.90;55.33;;;15.30;69.80;;;;;;4980674;28;91721;-48
2022/11/26 07:43:41;;;;;;;82.07;55.65;;;15.30;69.60;;;;;;4985349;28;91503;-48
2022/11/26 07:46:08;;;;;;;79.20;55.22;;;15.30;69.60;;;;;;4992958;27;90745;-46
2022/11/26 07:48:35;;;;;;;82.60;55.83;;;15.40;69.50;;;;;;4971255;28;91188;-48
2022/11/26 07:51:01;;;;;;;78.75;54.95;;;15.40;69.40;;;;;;4986116;28;91949;-50
2022/11/26 07:53:31;;;;;;;81.20;56.15;;;15.40;69.20;;;;;;4984923;28;89981;-48
2022/11/26 07:55:57;;;;;;;77.28;54.25;;;15.40;69.30;;;;;;4987702;27;90849;-48
2022/11/26 07:58:23;;;;;;;79.00;54.08;;;15.50;69.00;;;;;;4976886;28;90466;-49
2022/11/26 08:00:49;;;;;;;80.32;54.22;;;15.50;68.80;;;;;;4990511;27;91193;-48
2022/11/26 08:03:15;;;;;;;76.78;53.83;;;15.50;68.70;;;;;;4994278;27;89331;-51
2022/11/26 08:05:42;;;;;;;78.13;53.90;;;15.60;68.70;;;;;;4987744;28;90144;-49
2022/11/26 08:08:08;;;;;;;76.88;53.85;;;15.60;68.60;;;;;;4984080;28;89657;-48
2022/11/26 08:10:34;;;;;;;77.20;54.55;;;15.60;68.30;;;;;;4989667;28;90765;-48
2022/11/26 08:13:00;;;;;;;77.07;53.90;;;15.60;68.20;;;;;;4974446;28;89916;-47
2022/11/26 08:15:26;;;;;;;77.28;53.70;;;15.60;68.10;;;;;;4984350;28;90803;-50
2022/11/26 08:17:58;;;;;;;78.00;54.03;;;15.60;68.20;;;;;;4983351;28;90333;-50
2022/11/26 08:20:24;;;;;;;76.13;53.42;;;15.70;68.10;;;;;;4973331;28;92020;-50
2022/11/26 08:22:50;;;;;;;74.90;52.88;;;15.70;68.00;;;;;;4989313;28;90314;-47
2022/11/26 08:25:16;;;;;;;76.10;53.08;;;15.70;68.10;;;;;;4982191;28;90206;-48
2022/11/26 08:27:42;;;;;;;77.90;53.13;;;15.70;68.00;;;;;;4980366;28;89967;-48
2022/11/26 08:30:09;;;;;;;76.35;53.10;;;15.70;67.80;;;;;;4980652;28;90003;-48
2022/11/26 08:32:35;;;;;;;76.88;53.20;;;15.70;67.80;;;;;;4994063;28;94891;-47
2022/11/26 08:35:01;;;;;;;76.45;53.15;;;15.70;67.70;;;;;;4985424;28;89698;-49
2022/11/26 08:37:26;;;;;;;74.28;52.83;;;15.70;67.60;;;;;;4981719;28;89568;-49
2022/11/26 08:39:52;;;;;;;78.78;52.70;;;15.80;67.60;;;;;;4984754;28;91228;-48
2022/11/26 08:42:17;;;;;;;76.82;52.92;;;15.80;67.40;;;;;;4977348;28;89810;-49
2022/11/26 08:44:43;;;;;;;75.60;52.95;;;15.80;67.40;;;;;;4981052;28;91144;-47
2022/11/26 08:47:09;;;;;;;74.13;52.92;;;15.80;67.20;;;;;;4978690;28;90281;-51
2022/11/26 08:49:34;;;;;;;73.72;52.67;;;15.80;67.20;;;;;;4989694;28;90939;-51
2022/11/26 08:52:00;;;;;;;78.63;52.45;;;15.80;67.20;;;;;;4984348;28;89869;-50
2022/11/26 08:54:26;;;;;;;75.45;53.78;;;15.80;67.20;;;;;;4971632;28;91542;-47
2022/11/26 08:56:52;;;;;;;76.13;52.80;;;15.80;67.20;;;;;;4980692;28;93519;-47
2022/11/26 08:59:21;;;;;;;76.10;52.78;;;15.80;67.40;;;;;;4989151;28;90540;-49
2022/11/26 09:01:47;;;;;;;74.35;52.70;;;15.80;67.30;;;;;;4989780;28;88918;-47
2022/11/26 09:04:13;;;;;;;75.90;52.65;;;15.80;67.20;;;;;;4981503;28;92034;-47
2022/11/26 09:06:40;;;;;;;75.30;52.53;;;15.80;67.10;;;;;;4983276;28;89844;-49
2022/11/26 09:09:12;;;;;;;72.85;51.63;;;15.80;67.30;;;;;;4980763;28;90648;-51
2022/11/26 09:11:42;;;;;;;76.15;53.03;;;15.80;67.40;;;;;;4972166;28;92034;-51
2022/11/26 09:14:09;;;;;;;75.85;52.20;;;15.80;67.30;;;;;;4984634;28;90039;-50
2022/11/26 09:16:34;;;;;;;76.05;52.92;;;15.80;67.40;;;;;;4989287;28;92989;-48
2022/11/26 09:19:02;;;;;;;74.80;52.72;;;15.70;67.90;;;;;;4979587;28;90014;-47
2022/11/26 09:21:28;;;;;;;79.20;53.13;;;15.60;67.80;;;;;;4972364;28;91009;-47
2022/11/26 09:23:54;;;;;;;80.75;53.97;;;15.60;68.20;;;;;;4973297;28;91722;-49
2022/11/26 09:26:20;;;;;;;80.40;52.85;;;15.60;68.70;;;;;;4982256;28;94671;-47
2022/11/26 09:28:49;;;;;;;84.85;54.15;;;15.60;68.90;;;;;;4981766;28;90155;-50
2022/11/26 09:31:16;;;;;;;92.00;55.80;;;15.60;69.40;;;;;;4978961;28;90581;-50
2022/11/26 09:33:42;;;;;;;92.72;55.28;;;15.60;69.70;;;;;;4973250;28;92735;-49
2022/11/26 09:36:10;;;;;;;94.03;56.03;;;15.50;69.80;;;;;;4977269;28;91332;-49
2022/11/26 09:38:36;;;;;;;90.82;55.25;;;15.60;70.00;;;;;;4989688;28;91236;-48
2022/11/26 09:41:26;;;;;;;92.20;55.33;;;15.50;70.10;;;;;;4972246;28;90162;-50
2022/11/26 09:44:21;;;;;;;93.50;56.28;;;15.60;70.20;;;;;;4988035;28;90366;-50
2022/11/26 09:47:15;;;;;;;93.35;56.00;;;15.60;70.30;;;;;;4988533;28;91318;-47
2022/11/26 09:49:56;;;;;;;89.97;55.30;;;15.60;70.40;;;;;;4976769;28;96353;-49
2022/11/26 09:52:27;;;;;;;90.68;55.70;;;15.70;70.40;;;;;;4969699;28;90273;-48
2022/11/26 09:55:10;;;;;;;93.32;56.45;;;15.70;70.60;;;;;;4972803;28;92472;-48
2022/11/26 09:58:02;;;;;;;93.93;56.92;;;15.70;70.60;;;;;;4980572;28;90483;-48
2022/11/26 10:00:32;;;;;;;98.43;56.85;;;15.70;70.60;;;;;;4970157;28;96178;-48
2022/11/26 10:02:57;;;;;;;87.75;56.53;;;15.80;70.80;;;;;;4976944;28;90742;-51
2022/11/26 10:06:02;;;;;;;93.90;56.65;;;15.80;70.90;;;;;;4979581;28;90435;-50
2022/11/26 10:08:42;;;;;;;90.10;56.15;;;15.80;71.30;;;;;;4994160;28;90096;-48
2022/11/26 10:11:25;;;;;;;97.20;56.17;;;15.90;71.20;;;;;;4988102;28;89610;-48
2022/11/26 10:14:10;;;;;;;93.63;56.30;;;15.80;71.30;;;;;;4978907;28;94875;-48
2022/11/26 10:17:09;;;;;;;92.07;55.78;;;15.90;71.10;;;;;;4985058;28;90526;-47
2022/11/26 10:20:05;;;;;;;91.82;55.88;;;15.90;71.00;;;;;;4987149;27;90454;-48
2022/11/26 10:22:36;;;;;;;88.13;55.28;;;15.90;70.90;;;;;;4992552;28;89933;-48
2022/11/26 10:25:12;;;;;;;88.93;55.75;;;15.90;70.80;;;;;;4988222;28;91520;-47
2022/11/26 10:27:38;;;;;;;83.70;54.65;;;15.90;70.90;;;;;;4984279;28;93433;-48
2022/11/26 10:30:23;;;;;;;89.25;55.40;;;15.90;71.00;;;;;;4979817;28;89820;-46
2022/11/26 10:32:50;;;;;;;88.00;55.50;;;15.90;71.10;;;;;;4979244;28;89510;-48
2022/11/26 10:35:21;;;;;;;88.05;55.83;;;15.90;71.00;;;;;;4986699;28;91669;-50
2022/11/26 10:37:48;;;;;;;81.57;54.13;;;15.90;71.10;;;;;;4972854;28;91332;-46
2022/11/26 10:40:24;;;;;;;89.10;55.40;;;15.90;71.00;;;;;;4971173;28;91084;-49
2022/11/26 10:43:02;;;;;;;100.35;59.05;;;15.90;71.00;;;;;;4980499;28;89916;-49
2022/11/26 10:45:39;;;;;;;102.80;60.13;;;15.90;70.80;;;;;;4964175;28;91459;-48
2022/11/26 10:48:28;;;;;;;131.13;68.18;;;15.90;70.60;;;;;;4979574;28;90433;-50
2022/11/26 10:51:14;;;;;;;119.78;66.03;;;16.00;71.30;;;;;;4977006;28;90005;-49
2022/11/26 10:54:00;;;;;;;133.13;66.03;;;15.90;70.90;;;;;;4975043;28;91077;-46
2022/11/26 10:56:52;;;;;;;120.20;64.45;;;15.90;71.10;;;;;;4981623;28;91227;-48
2022/11/26 10:59:39;;;;;;;;;;;15.90;70.70;;;;;;4977892;28;89711;-46
2022/11/26 11:02:26;;;;;;;112.38;62.05;;;16.00;70.50;;;;;;4984616;28;91686;-48
2022/11/26 11:04:54;;;;;;;116.28;64.47;;;16.10;70.10;;;;;;4980949;28;98936;-45
2022/11/26 11:07:32;;;;;;;124.75;65.65;;;16.10;70.10;;;;;;4987526;28;90421;-45
2022/11/26 11:10:20;;;;;;;125.10;67.13;;;16.10;72.00;;;;;;4981383;28;95195;-46
2022/11/26 11:13:11;;;;;;;128.35;66.82;;;16.20;73.80;;;;;;4985509;28;89502;-46
2022/11/26 11:15:39;;;;;;;137.80;68.10;;;16.10;73.70;;;;;;4970834;28;90460;-47
2022/11/26 11:18:21;;;;;;;122.43;66.07;;;16.10;73.50;;;;;;4975786;28;90507;-48
2022/11/26 11:21:06;;;;;;;124.93;66.57;;;16.10;73.40;;;;;;4983799;28;92965;-49
2022/11/26 11:23:35;;;;;;;123.22;68.07;;;16.10;73.30;;;;;;4979572;28;93911;-47
2022/11/26 11:26:04;;;;;;;129.93;68.55;;;16.10;73.40;;;;;;4969390;28;90674;-50
2022/11/26 11:28:33;;;;;;;121.18;65.93;;;16.20;73.00;;;;;;4980971;28;89971;-48
2022/11/26 11:31:18;;;;;;;129.40;66.55;;;16.10;72.30;;;;;;4973213;28;89845;-50
2022/11/26 11:33:45;;;;;;;108.75;62.10;;;16.10;71.80;;;;;;4981417;28;90032;-48
2022/11/26 11:36:16;;;;;;;109.60;62.63;;;16.10;71.20;;;;;;4982649;28;89530;-49
2022/11/26 11:38:48;;;;;;;115.68;64.40;;;16.10;71.00;;;;;;4984256;28;90522;-48
2022/11/26 11:41:38;;;;;;;116.32;63.53;;;16.00;72.00;;;;;;4973187;28;91233;-49
2022/11/26 11:44:24;;;;;;;124.03;65.30;;;16.10;72.20;;;;;;4973796;28;90483;-49
2022/11/26 11:46:57;;;;;;;117.32;63.38;;;16.10;72.20;;;;;;4972590;28;92698;-48
2022/11/26 11:49:31;;;;;;;107.20;61.50;;;16.10;71.90;;;;;;4970897;27;91171;-51
2022/11/26 11:52:30;;;;;;;106.35;61.70;;;16.10;71.50;;;;;;4984211;28;90968;-52
2022/11/26 11:55:22;;;;;;;108.32;62.05;;;16.00;71.50;;;;;;4967686;28;91411;-51
2022/11/26 11:58:09;;;;;;;112.82;62.38;;;16.00;71.50;;;;;;4976843;27;90038;-46
2022/11/26 12:00:52;;;;;;;107.82;60.10;;;16.00;71.40;;;;;;4977061;28;91479;-51
2022/11/26 12:03:43;;;;;;;105.40;60.22;;;16.00;71.20;;;;;;4982575;28;90925;-47
2022/11/26 12:06:20;;;;;;;98.43;59.78;;;16.00;71.30;;;;;;4982947;28;90492;-49
2022/11/26 12:09:14;;;;;;;106.78;62.00;;;16.00;71.10;;;;;;4980503;28;91246;-48
2022/11/26 12:11:58;;;;;;;104.63;61.70;;;16.00;71.20;;;;;;4976484;28;90256;-49
2022/11/26 12:14:31;;;;;;;103.03;60.97;;;16.00;71.20;;;;;;4970082;28;91624;-51
2022/11/26 12:17:34;;;;;;;102.13;58.83;;;16.00;71.00;;;;;;4984122;28;90921;-50
2022/11/26 12:20:43;;;;;;;95.32;58.15;;;16.00;70.70;;;;;;4971759;28;90658;-49
2022/11/26 12:23:24;;;;;;;94.72;58.40;;;16.00;70.70;;;;;;4976372;28;90612;-48
2022/11/26 12:25:55;;;;;;;98.30;59.10;;;16.00;70.70;;;;;;4981355;28;90503;-48
2022/11/26 12:28:40;;;;;;;95.72;58.22;;;16.00;70.60;;;;;;4976068;28;89840;-48
2022/11/26 12:31:18;;;;;;;92.85;58.03;;;16.00;70.60;;;;;;4981777;28;92685;-50
2022/11/26 12:34:27;;;;;;;96.82;57.42;;;15.90;70.50;;;;;;4981802;28;88982;-48
2022/11/26 12:37:01;;;;;;;92.40;57.38;;;15.90;70.40;;;;;;4980736;28;90176;-49
2022/11/26 12:39:45;;;;;;;97.07;58.10;;;16.00;70.30;;;;;;4982926;28;92329;-48
2022/11/26 12:42:18;;;;;;;98.95;58.55;;;15.90;70.30;;;;;;4976830;28;93506;-48
2022/11/26 12:44:49;;;;;;;96.43;58.03;;;15.90;70.50;;;;;;4993993;28;89957;-48